sensor_id;sensor_type;location;lat;lon;timestamp;P1;P2;P0
46885;PMS5003;32622;48.202;11.326;2023-06-01T00:00:35;28;27;
46885;PMS5003;32622;48.202;11.326;2023-06-01T00:02:38;28;27;
46885;PMS5003;32622;48.202;11.326;2023-06-01T00:04:41;28;26;
46885;PMS5003;32622;48.202;11.326;2023-06-01T00:06:45;28;26;
46885;PMS5003;32622;48.202;11.326;2023-06-01T00:08:48;28;26;
46885;PMS5003;32622;48.202;11.326;2023-06-01T00:10:51;28;27;
46885;PMS5003;32622;48.202;11.326;2023-06-01T00:12:54;28;27;
46885;PMS5003;32622;48.202;11.326;2023-06-01T00:14:57;28;27;
46885;PMS5003;32622;48.202;11.326;2023-06-01T00:17:00;25;25;
46885;PMS5003;32622;48.202;11.326;2023-06-01T00:19:04;25;25;
46885;PMS5003;32622;48.202;11.326;2023-06-01T00:21:07;25;25;
46885;PMS5003;32622;48.202;11.326;2023-06-01T00:23:10;25;25;
46885;PMS5003;32622;48.202;11.326;2023-06-01T00:25:17;25;25;
46885;PMS5003;32622;48.202;11.326;2023-06-01T00:27:21;25;25;
46885;PMS5003;32622;48.202;11.326;2023-06-01T00:29:24;26;26;
46885;PMS5003;32622;48.202;11.326;2023-06-01T00:31:28;26;26;
46885;PMS5003;32622;48.202;11.326;2023-06-01T00:33:31;26;26;
46885;PMS5003;32622;48.202;11.326;2023-06-01T00:35:34;25;25;
46885;PMS5003;32622;48.202;11.326;2023-06-01T00:37:39;25;25;
46885;PMS5003;32622;48.202;11.326;2023-06-01T00:39:42;25;25;
46885;PMS5003;32622;48.202;11.326;2023-06-01T00:41:45;24;24;
46885;PMS5003;32622;48.202;11.326;2023-06-01T00:43:48;24;24;
46885;PMS5003;32622;48.202;11.326;2023-06-01T00:45:51;24;24;
46885;PMS5003;32622;48.202;11.326;2023-06-01T00:47:55;23;23;
46885;PMS5003;32622;48.202;11.326;2023-06-01T00:49:59;23;23;
46885;PMS5003;32622;48.202;11.326;2023-06-01T00:52:02;23;23;
46885;PMS5003;32622;48.202;11.326;2023-06-01T00:54:06;22;22;
46885;PMS5003;32622;48.202;11.326;2023-06-01T00:56:10;22;22;
46885;PMS5003;32622;48.202;11.326;2023-06-01T00:58:13;22;22;
46885;PMS5003;32622;48.202;11.326;2023-06-01T01:00:17;22;22;
46885;PMS5003;32622;48.202;11.326;2023-06-01T01:02:21;22;22;
46885;PMS5003;32622;48.202;11.326;2023-06-01T01:04:25;22;22;
46885;PMS5003;32622;48.202;11.326;2023-06-01T01:06:34;21;21;
46885;PMS5003;32622;48.202;11.326;2023-06-01T01:08:49;21;21;
46885;PMS5003;32622;48.202;11.326;2023-06-01T01:11:06;21;21;
46885;PMS5003;32622;48.202;11.326;2023-06-01T01:13:18;21;21;
46885;PMS5003;32622;48.202;11.326;2023-06-01T01:15:26;21;21;
46885;PMS5003;32622;48.202;11.326;2023-06-01T01:17:40;21;21;
46885;PMS5003;32622;48.202;11.326;2023-06-01T01:19:52;21;21;
46885;PMS5003;32622;48.202;11.326;2023-06-01T01:22:06;21;21;
46885;PMS5003;32622;48.202;11.326;2023-06-01T01:24:22;21;21;
46885;PMS5003;32622;48.202;11.326;2023-06-01T01:26:42;21;21;
46885;PMS5003;32622;48.202;11.326;2023-06-01T01:28:56;21;21;
46885;PMS5003;32622;48.202;11.326;2023-06-01T01:31:04;21;21;
46885;PMS5003;32622;48.202;11.326;2023-06-01T01:33:10;21;21;
46885;PMS5003;32622;48.202;11.326;2023-06-01T01:35:15;22;22;
46885;PMS5003;32622;48.202;11.326;2023-06-01T01:37:21;22;22;
46885;PMS5003;32622;48.202;11.326;2023-06-01T01:39:24;24;23;
46885;PMS5003;32622;48.202;11.326;2023-06-01T01:41:28;24;23;
46885;PMS5003;32622;48.202;11.326;2023-06-01T01:43:31;24;23;
46885;PMS5003;32622;48.202;11.326;2023-06-01T01:45:35;24;23;
46885;PMS5003;32622;48.202;11.326;2023-06-01T01:47:40;24;23;
46885;PMS5003;32622;48.202;11.326;2023-06-01T01:49:51;23;22;
46885;PMS5003;32622;48.202;11.326;2023-06-01T01:52:02;23;22;
46885;PMS5003;32622;48.202;11.326;2023-06-01T01:54:10;23;22;
46885;PMS5003;32622;48.202;11.326;2023-06-01T01:56:15;23;22;
46885;PMS5003;32622;48.202;11.326;2023-06-01T01:58:20;24;22;
46885;PMS5003;32622;48.202;11.326;2023-06-01T02:00:24;24;22;
46885;PMS5003;32622;48.202;11.326;2023-06-01T02:02:27;24;22;
46885;PMS5003;32622;48.202;11.326;2023-06-01T02:04:31;23;21;
46885;PMS5003;32622;48.202;11.326;2023-06-01T02:06:34;23;21;
46885;PMS5003;32622;48.202;11.326;2023-06-01T02:08:37;23;21;
46885;PMS5003;32622;48.202;11.326;2023-06-01T02:10:41;23;21;
46885;PMS5003;32622;48.202;11.326;2023-06-01T02:12:44;23;21;
46885;PMS5003;32622;48.202;11.326;2023-06-01T02:14:47;23;21;
46885;PMS5003;32622;48.202;11.326;2023-06-01T02:16:50;23;21;
46885;PMS5003;32622;48.202;11.326;2023-06-01T02:18:54;23;21;
46885;PMS5003;32622;48.202;11.326;2023-06-01T02:20:57;23;21;
46885;PMS5003;32622;48.202;11.326;2023-06-01T02:23:00;23;21;
46885;PMS5003;32622;48.202;11.326;2023-06-01T02:25:03;24;22;
46885;PMS5003;32622;48.202;11.326;2023-06-01T02:27:07;24;22;
46885;PMS5003;32622;48.202;11.326;2023-06-01T02:29:12;23;21;
46885;PMS5003;32622;48.202;11.326;2023-06-01T02:31:15;23;21;
46885;PMS5003;32622;48.202;11.326;2023-06-01T02:33:18;22;20;
46885;PMS5003;32622;48.202;11.326;2023-06-01T02:35:21;21;19;
46885;PMS5003;32622;48.202;11.326;2023-06-01T02:37:24;21;19;
46885;PMS5003;32622;48.202;11.326;2023-06-01T02:39:28;22;20;
46885;PMS5003;32622;48.202;11.326;2023-06-01T02:41:31;20;20;
46885;PMS5003;32622;48.202;11.326;2023-06-01T02:43:34;20;20;
46885;PMS5003;32622;48.202;11.326;2023-06-01T02:45:38;20;20;
46885;PMS5003;32622;48.202;11.326;2023-06-01T02:47:41;20;20;
46885;PMS5003;32622;48.202;11.326;2023-06-01T02:49:44;20;20;
46885;PMS5003;32622;48.202;11.326;2023-06-01T02:51:47;20;20;
46885;PMS5003;32622;48.202;11.326;2023-06-01T02:53:50;21;21;
46885;PMS5003;32622;48.202;11.326;2023-06-01T02:55:53;21;21;
46885;PMS5003;32622;48.202;11.326;2023-06-01T02:57:56;21;21;
46885;PMS5003;32622;48.202;11.326;2023-06-01T02:59:59;21;21;
46885;PMS5003;32622;48.202;11.326;2023-06-01T03:02:02;21;21;
46885;PMS5003;32622;48.202;11.326;2023-06-01T03:04:06;21;21;
46885;PMS5003;32622;48.202;11.326;2023-06-01T03:06:09;21;21;
46885;PMS5003;32622;48.202;11.326;2023-06-01T03:08:12;20;20;
46885;PMS5003;32622;48.202;11.326;2023-06-01T03:10:15;20;20;
46885;PMS5003;32622;48.202;11.326;2023-06-01T03:12:19;21;20;
46885;PMS5003;32622;48.202;11.326;2023-06-01T03:14:22;22;21;
46885;PMS5003;32622;48.202;11.326;2023-06-01T03:16:25;22;21;
46885;PMS5003;32622;48.202;11.326;2023-06-01T03:18:28;22;21;
46885;PMS5003;32622;48.202;11.326;2023-06-01T03:20:31;22;21;
46885;PMS5003;32622;48.202;11.326;2023-06-01T03:22:35;21;20;
46885;PMS5003;32622;48.202;11.326;2023-06-01T03:24:38;21;20;
46885;PMS5003;32622;48.202;11.326;2023-06-01T03:26:41;21;20;
46885;PMS5003;32622;48.202;11.326;2023-06-01T03:28:44;21;20;
46885;PMS5003;32622;48.202;11.326;2023-06-01T03:30:47;21;20;
46885;PMS5003;32622;48.202;11.326;2023-06-01T03:32:50;21;20;
46885;PMS5003;32622;48.202;11.326;2023-06-01T03:34:53;21;20;
46885;PMS5003;32622;48.202;11.326;2023-06-01T03:36:57;21;20;
46885;PMS5003;32622;48.202;11.326;2023-06-01T03:39:00;21;20;
46885;PMS5003;32622;48.202;11.326;2023-06-01T03:41:03;21;20;
46885;PMS5003;32622;48.202;11.326;2023-06-01T03:43:06;21;20;
46885;PMS5003;32622;48.202;11.326;2023-06-01T03:45:11;21;20;
46885;PMS5003;32622;48.202;11.326;2023-06-01T03:47:15;21;20;
46885;PMS5003;32622;48.202;11.326;2023-06-01T03:49:18;22;20;
46885;PMS5003;32622;48.202;11.326;2023-06-01T03:51:21;22;20;
46885;PMS5003;32622;48.202;11.326;2023-06-01T03:53:24;22;20;
46885;PMS5003;32622;48.202;11.326;2023-06-01T03:55:27;22;20;
46885;PMS5003;32622;48.202;11.326;2023-06-01T03:57:31;23;21;
46885;PMS5003;32622;48.202;11.326;2023-06-01T03:59:34;23;21;
46885;PMS5003;32622;48.202;11.326;2023-06-01T04:01:37;21;20;
46885;PMS5003;32622;48.202;11.326;2023-06-01T04:03:40;21;20;
46885;PMS5003;32622;48.202;11.326;2023-06-01T04:05:43;21;20;
46885;PMS5003;32622;48.202;11.326;2023-06-01T04:07:46;21;19;
46885;PMS5003;32622;48.202;11.326;2023-06-01T04:09:51;21;19;
46885;PMS5003;32622;48.202;11.326;2023-06-01T04:11:54;21;19;
46885;PMS5003;32622;48.202;11.326;2023-06-01T04:13:57;20;19;
46885;PMS5003;32622;48.202;11.326;2023-06-01T04:16:01;20;19;
46885;PMS5003;32622;48.202;11.326;2023-06-01T04:18:04;20;19;
46885;PMS5003;32622;48.202;11.326;2023-06-01T04:20:09;21;20;
46885;PMS5003;32622;48.202;11.326;2023-06-01T04:22:13;21;20;
46885;PMS5003;32622;48.202;11.326;2023-06-01T04:24:16;21;20;
46885;PMS5003;32622;48.202;11.326;2023-06-01T04:26:20;22;20;
46885;PMS5003;32622;48.202;11.326;2023-06-01T04:28:23;22;20;
46885;PMS5003;32622;48.202;11.326;2023-06-01T04:30:26;22;20;
46885;PMS5003;32622;48.202;11.326;2023-06-01T04:32:30;21;20;
46885;PMS5003;32622;48.202;11.326;2023-06-01T04:34:33;21;20;
46885;PMS5003;32622;48.202;11.326;2023-06-01T04:36:36;21;20;
46885;PMS5003;32622;48.202;11.326;2023-06-01T04:38:40;22;21;
46885;PMS5003;32622;48.202;11.326;2023-06-01T04:40:43;22;21;
46885;PMS5003;32622;48.202;11.326;2023-06-01T04:42:46;22;21;
46885;PMS5003;32622;48.202;11.326;2023-06-01T04:44:49;22;20;
46885;PMS5003;32622;48.202;11.326;2023-06-01T04:46:52;22;20;
46885;PMS5003;32622;48.202;11.326;2023-06-01T04:48:55;22;20;
46885;PMS5003;32622;48.202;11.326;2023-06-01T04:50:59;22;21;
46885;PMS5003;32622;48.202;11.326;2023-06-01T04:53:02;22;21;
46885;PMS5003;32622;48.202;11.326;2023-06-01T04:55:06;22;21;
46885;PMS5003;32622;48.202;11.326;2023-06-01T04:57:10;23;22;
46885;PMS5003;32622;48.202;11.326;2023-06-01T04:59:13;23;22;
46885;PMS5003;32622;48.202;11.326;2023-06-01T05:01:16;23;22;
46885;PMS5003;32622;48.202;11.326;2023-06-01T05:03:19;23;22;
46885;PMS5003;32622;48.202;11.326;2023-06-01T05:05:22;23;22;
46885;PMS5003;32622;48.202;11.326;2023-06-01T05:07:26;23;22;
46885;PMS5003;32622;48.202;11.326;2023-06-01T05:09:29;24;23;
46885;PMS5003;32622;48.202;11.326;2023-06-01T05:11:32;24;23;
46885;PMS5003;32622;48.202;11.326;2023-06-01T05:13:35;24;23;
46885;PMS5003;32622;48.202;11.326;2023-06-01T05:15:39;25;23;
46885;PMS5003;32622;48.202;11.326;2023-06-01T05:17:42;25;23;
46885;PMS5003;32622;48.202;11.326;2023-06-01T05:19:45;25;23;
46885;PMS5003;32622;48.202;11.326;2023-06-01T05:21:48;26;22;
46885;PMS5003;32622;48.202;11.326;2023-06-01T05:23:52;26;22;
46885;PMS5003;32622;48.202;11.326;2023-06-01T05:25:55;26;22;
46885;PMS5003;32622;48.202;11.326;2023-06-01T05:27:58;27;23;
46885;PMS5003;32622;48.202;11.326;2023-06-01T05:30:02;27;23;
46885;PMS5003;32622;48.202;11.326;2023-06-01T05:32:06;27;23;
46885;PMS5003;32622;48.202;11.326;2023-06-01T05:34:10;27;24;
46885;PMS5003;32622;48.202;11.326;2023-06-01T05:36:13;27;24;
46885;PMS5003;32622;48.202;11.326;2023-06-01T05:38:17;27;24;
46885;PMS5003;32622;48.202;11.326;2023-06-01T05:40:20;27;23;
46885;PMS5003;32622;48.202;11.326;2023-06-01T05:42:23;27;23;
46885;PMS5003;32622;48.202;11.326;2023-06-01T05:44:27;27;23;
46885;PMS5003;32622;48.202;11.326;2023-06-01T05:46:30;28;23;
46885;PMS5003;32622;48.202;11.326;2023-06-01T05:48:34;28;23;
46885;PMS5003;32622;48.202;11.326;2023-06-01T05:50:37;28;23;
46885;PMS5003;32622;48.202;11.326;2023-06-01T05:52:40;28;23;
46885;PMS5003;32622;48.202;11.326;2023-06-01T05:54:44;28;23;
46885;PMS5003;32622;48.202;11.326;2023-06-01T05:56:52;28;23;
46885;PMS5003;32622;48.202;11.326;2023-06-01T05:58:55;27;22;
46885;PMS5003;32622;48.202;11.326;2023-06-01T06:00:58;27;22;
46885;PMS5003;32622;48.202;11.326;2023-06-01T06:03:01;27;22;
46885;PMS5003;32622;48.202;11.326;2023-06-01T06:05:05;27;22;
46885;PMS5003;32622;48.202;11.326;2023-06-01T06:07:09;27;22;
46885;PMS5003;32622;48.202;11.326;2023-06-01T06:09:12;27;22;
46885;PMS5003;32622;48.202;11.326;2023-06-01T06:11:15;27;22;
46885;PMS5003;32622;48.202;11.326;2023-06-01T06:13:18;27;22;
46885;PMS5003;32622;48.202;11.326;2023-06-01T06:15:22;27;22;
46885;PMS5003;32622;48.202;11.326;2023-06-01T06:17:25;25;22;
46885;PMS5003;32622;48.202;11.326;2023-06-01T06:19:28;25;22;
46885;PMS5003;32622;48.202;11.326;2023-06-01T06:21:31;25;22;
46885;PMS5003;32622;48.202;11.326;2023-06-01T06:23:35;25;23;
46885;PMS5003;32622;48.202;11.326;2023-06-01T06:25:38;25;23;
46885;PMS5003;32622;48.202;11.326;2023-06-01T06:27:41;25;23;
46885;PMS5003;32622;48.202;11.326;2023-06-01T06:29:44;25;22;
46885;PMS5003;32622;48.202;11.326;2023-06-01T06:31:48;25;22;
46885;PMS5003;32622;48.202;11.326;2023-06-01T06:33:51;25;22;
46885;PMS5003;32622;48.202;11.326;2023-06-01T06:35:55;24;22;
46885;PMS5003;32622;48.202;11.326;2023-06-01T06:37:58;24;22;
46885;PMS5003;32622;48.202;11.326;2023-06-01T06:40:02;24;22;
46885;PMS5003;32622;48.202;11.326;2023-06-01T06:42:06;26;22;
46885;PMS5003;32622;48.202;11.326;2023-06-01T06:44:09;26;22;
46885;PMS5003;32622;48.202;11.326;2023-06-01T06:46:12;26;22;
46885;PMS5003;32622;48.202;11.326;2023-06-01T06:48:15;25;23;
46885;PMS5003;32622;48.202;11.326;2023-06-01T06:50:18;25;23;
46885;PMS5003;32622;48.202;11.326;2023-06-01T06:52:21;25;23;
46885;PMS5003;32622;48.202;11.326;2023-06-01T06:54:25;26;23;
46885;PMS5003;32622;48.202;11.326;2023-06-01T06:56:28;26;23;
46885;PMS5003;32622;48.202;11.326;2023-06-01T06:58:31;26;23;
46885;PMS5003;32622;48.202;11.326;2023-06-01T07:00:34;26;24;
46885;PMS5003;32622;48.202;11.326;2023-06-01T07:02:37;26;24;
46885;PMS5003;32622;48.202;11.326;2023-06-01T07:04:41;26;24;
46885;PMS5003;32622;48.202;11.326;2023-06-01T07:06:45;27;25;
46885;PMS5003;32622;48.202;11.326;2023-06-01T07:08:48;27;25;
46885;PMS5003;32622;48.202;11.326;2023-06-01T07:10:52;27;25;
46885;PMS5003;32622;48.202;11.326;2023-06-01T07:12:56;28;25;
46885;PMS5003;32622;48.202;11.326;2023-06-01T07:14:59;28;25;
46885;PMS5003;32622;48.202;11.326;2023-06-01T07:17:02;28;25;
46885;PMS5003;32622;48.202;11.326;2023-06-01T07:19:06;28;26;
46885;PMS5003;32622;48.202;11.326;2023-06-01T07:21:09;28;26;
46885;PMS5003;32622;48.202;11.326;2023-06-01T07:23:12;28;26;
46885;PMS5003;32622;48.202;11.326;2023-06-01T07:25:16;28;25;
46885;PMS5003;32622;48.202;11.326;2023-06-01T07:27:19;28;25;
46885;PMS5003;32622;48.202;11.326;2023-06-01T07:29:22;28;25;
46885;PMS5003;32622;48.202;11.326;2023-06-01T07:31:26;28;25;
46885;PMS5003;32622;48.202;11.326;2023-06-01T07:33:30;28;25;
46885;PMS5003;32622;48.202;11.326;2023-06-01T07:35:33;28;25;
46885;PMS5003;32622;48.202;11.326;2023-06-01T07:37:37;28;25;
46885;PMS5003;32622;48.202;11.326;2023-06-01T07:39:40;28;25;
46885;PMS5003;32622;48.202;11.326;2023-06-01T07:41:44;28;25;
46885;PMS5003;32622;48.202;11.326;2023-06-01T07:43:47;29;26;
46885;PMS5003;32622;48.202;11.326;2023-06-01T07:45:50;29;26;
46885;PMS5003;32622;48.202;11.326;2023-06-01T07:47:53;29;26;
46885;PMS5003;32622;48.202;11.326;2023-06-01T07:49:56;28;26;
46885;PMS5003;32622;48.202;11.326;2023-06-01T07:52:00;28;26;
46885;PMS5003;32622;48.202;11.326;2023-06-01T07:54:03;28;26;
46885;PMS5003;32622;48.202;11.326;2023-06-01T07:56:07;26;25;
46885;PMS5003;32622;48.202;11.326;2023-06-01T07:58:10;26;25;
46885;PMS5003;32622;48.202;11.326;2023-06-01T08:00:14;26;25;
46885;PMS5003;32622;48.202;11.326;2023-06-01T08:02:18;26;25;
46885;PMS5003;32622;48.202;11.326;2023-06-01T08:04:21;26;25;
46885;PMS5003;32622;48.202;11.326;2023-06-01T08:06:25;26;25;
46885;PMS5003;32622;48.202;11.326;2023-06-01T08:08:28;27;26;
46885;PMS5003;32622;48.202;11.326;2023-06-01T08:10:31;27;26;
46885;PMS5003;32622;48.202;11.326;2023-06-01T08:12:35;27;26;
46885;PMS5003;32622;48.202;11.326;2023-06-01T08:14:38;28;26;
46885;PMS5003;32622;48.202;11.326;2023-06-01T08:16:41;28;26;
46885;PMS5003;32622;48.202;11.326;2023-06-01T08:18:44;28;26;
46885;PMS5003;32622;48.202;11.326;2023-06-01T08:20:47;27;25;
46885;PMS5003;32622;48.202;11.326;2023-06-01T08:22:51;27;25;
46885;PMS5003;32622;48.202;11.326;2023-06-01T08:24:54;27;25;
46885;PMS5003;32622;48.202;11.326;2023-06-01T08:26:57;28;24;
46885;PMS5003;32622;48.202;11.326;2023-06-01T08:29:01;28;24;
46885;PMS5003;32622;48.202;11.326;2023-06-01T08:31:04;28;24;
46885;PMS5003;32622;48.202;11.326;2023-06-01T08:33:07;27;23;
46885;PMS5003;32622;48.202;11.326;2023-06-01T08:35:11;27;23;
46885;PMS5003;32622;48.202;11.326;2023-06-01T08:37:14;27;23;
46885;PMS5003;32622;48.202;11.326;2023-06-01T08:39:21;27;24;
46885;PMS5003;32622;48.202;11.326;2023-06-01T08:41:26;27;24;
46885;PMS5003;32622;48.202;11.326;2023-06-01T08:43:42;27;24;
46885;PMS5003;32622;48.202;11.326;2023-06-01T08:45:51;25;23;
46885;PMS5003;32622;48.202;11.326;2023-06-01T08:47:54;25;23;
46885;PMS5003;32622;48.202;11.326;2023-06-01T08:49:57;25;23;
46885;PMS5003;32622;48.202;11.326;2023-06-01T08:52:01;24;22;
46885;PMS5003;32622;48.202;11.326;2023-06-01T08:54:08;24;22;
46885;PMS5003;32622;48.202;11.326;2023-06-01T08:56:12;24;22;
46885;PMS5003;32622;48.202;11.326;2023-06-01T08:58:16;24;22;
46885;PMS5003;32622;48.202;11.326;2023-06-01T09:00:20;24;22;
46885;PMS5003;32622;48.202;11.326;2023-06-01T09:02:24;24;22;
46885;PMS5003;32622;48.202;11.326;2023-06-01T09:04:27;24;22;
46885;PMS5003;32622;48.202;11.326;2023-06-01T09:06:31;24;22;
46885;PMS5003;32622;48.202;11.326;2023-06-01T09:08:34;24;22;
46885;PMS5003;32622;48.202;11.326;2023-06-01T09:10:37;22;20;
46885;PMS5003;32622;48.202;11.326;2023-06-01T09:12:41;22;20;
46885;PMS5003;32622;48.202;11.326;2023-06-01T09:15:10;22;20;
46885;PMS5003;32622;48.202;11.326;2023-06-01T09:17:15;21;20;
46885;PMS5003;32622;48.202;11.326;2023-06-01T09:19:23;21;20;
46885;PMS5003;32622;48.202;11.326;2023-06-01T09:21:49;21;20;
46885;PMS5003;32622;48.202;11.326;2023-06-01T09:24:02;21;20;
46885;PMS5003;32622;48.202;11.326;2023-06-01T09:26:25;21;20;
46885;PMS5003;32622;48.202;11.326;2023-06-01T09:28:28;21;20;
46885;PMS5003;32622;48.202;11.326;2023-06-01T09:30:40;20;20;
46885;PMS5003;32622;48.202;11.326;2023-06-01T09:32:44;20;20;
46885;PMS5003;32622;48.202;11.326;2023-06-01T09:34:48;20;20;
46885;PMS5003;32622;48.202;11.326;2023-06-01T09:36:52;19;19;
46885;PMS5003;32622;48.202;11.326;2023-06-01T09:38:59;19;19;
46885;PMS5003;32622;48.202;11.326;2023-06-01T09:41:03;19;19;
46885;PMS5003;32622;48.202;11.326;2023-06-01T09:43:18;18;18;
46885;PMS5003;32622;48.202;11.326;2023-06-01T09:45:22;18;18;
46885;PMS5003;32622;48.202;11.326;2023-06-01T09:47:27;18;18;
46885;PMS5003;32622;48.202;11.326;2023-06-01T09:49:31;18;18;
46885;PMS5003;32622;48.202;11.326;2023-06-01T09:51:36;18;18;
46885;PMS5003;32622;48.202;11.326;2023-06-01T09:53:40;18;18;
46885;PMS5003;32622;48.202;11.326;2023-06-01T09:56:00;17;17;
46885;PMS5003;32622;48.202;11.326;2023-06-01T09:58:20;17;17;
46885;PMS5003;32622;48.202;11.326;2023-06-01T10:00:24;17;17;
46885;PMS5003;32622;48.202;11.326;2023-06-01T10:02:28;19;17;
46885;PMS5003;32622;48.202;11.326;2023-06-01T10:04:32;19;17;
46885;PMS5003;32622;48.202;11.326;2023-06-01T10:06:39;19;17;
46885;PMS5003;32622;48.202;11.326;2023-06-01T10:08:43;18;17;
46885;PMS5003;32622;48.202;11.326;2023-06-01T10:10:47;18;17;
46885;PMS5003;32622;48.202;11.326;2023-06-01T10:12:51;18;17;
46885;PMS5003;32622;48.202;11.326;2023-06-01T10:14:55;18;17;
46885;PMS5003;32622;48.202;11.326;2023-06-01T10:16:59;18;17;
46885;PMS5003;32622;48.202;11.326;2023-06-01T10:19:03;18;17;
46885;PMS5003;32622;48.202;11.326;2023-06-01T10:21:07;17;16;
46885;PMS5003;32622;48.202;11.326;2023-06-01T10:23:11;17;16;
46885;PMS5003;32622;48.202;11.326;2023-06-01T10:25:14;17;16;
46885;PMS5003;32622;48.202;11.326;2023-06-01T10:27:22;17;16;
46885;PMS5003;32622;48.202;11.326;2023-06-01T10:29:29;17;16;
46885;PMS5003;32622;48.202;11.326;2023-06-01T10:31:34;17;16;
46885;PMS5003;32622;48.202;11.326;2023-06-01T10:33:55;18;16;
46885;PMS5003;32622;48.202;11.326;2023-06-01T10:35:58;18;16;
46885;PMS5003;32622;48.202;11.326;2023-06-01T10:38:23;18;16;
46885;PMS5003;32622;48.202;11.326;2023-06-01T10:40:27;18;16;
46885;PMS5003;32622;48.202;11.326;2023-06-01T10:42:35;18;16;
46885;PMS5003;32622;48.202;11.326;2023-06-01T10:44:47;18;16;
46885;PMS5003;32622;48.202;11.326;2023-06-01T10:46:51;18;16;
46885;PMS5003;32622;48.202;11.326;2023-06-01T10:48:55;18;16;
46885;PMS5003;32622;48.202;11.326;2023-06-01T10:53:31;19;17;
46885;PMS5003;32622;48.202;11.326;2023-06-01T10:55:34;19;17;
46885;PMS5003;32622;48.202;11.326;2023-06-01T10:57:37;19;17;
46885;PMS5003;32622;48.202;11.326;2023-06-01T10:59:41;19;17;
46885;PMS5003;32622;48.202;11.326;2023-06-01T11:01:46;19;17;
46885;PMS5003;32622;48.202;11.326;2023-06-01T11:03:49;19;17;
46885;PMS5003;32622;48.202;11.326;2023-06-01T11:05:52;19;18;
46885;PMS5003;32622;48.202;11.326;2023-06-01T11:07:55;19;18;
46885;PMS5003;32622;48.202;11.326;2023-06-01T11:09:58;19;18;
46885;PMS5003;32622;48.202;11.326;2023-06-01T11:12:02;21;20;
46885;PMS5003;32622;48.202;11.326;2023-06-01T11:14:07;21;20;
46885;PMS5003;32622;48.202;11.326;2023-06-01T11:16:35;21;20;
46885;PMS5003;32622;48.202;11.326;2023-06-01T11:18:42;21;20;
46885;PMS5003;32622;48.202;11.326;2023-06-01T11:20:45;22;21;
46885;PMS5003;32622;48.202;11.326;2023-06-01T11:22:49;22;21;
46885;PMS5003;32622;48.202;11.326;2023-06-01T11:24:54;22;22;
46885;PMS5003;32622;48.202;11.326;2023-06-01T11:27:01;22;22;
46885;PMS5003;32622;48.202;11.326;2023-06-01T11:29:09;23;23;
46885;PMS5003;32622;48.202;11.326;2023-06-01T11:31:15;23;23;
46885;PMS5003;32622;48.202;11.326;2023-06-01T11:33:18;22;22;
46885;PMS5003;32622;48.202;11.326;2023-06-01T11:35:22;22;22;
46885;PMS5003;32622;48.202;11.326;2023-06-01T11:37:25;20;20;
46885;PMS5003;32622;48.202;11.326;2023-06-01T11:39:28;22;21;
46885;PMS5003;32622;48.202;11.326;2023-06-01T11:41:31;23;23;
46885;PMS5003;32622;48.202;11.326;2023-06-01T11:43:35;22;22;
46885;PMS5003;32622;48.202;11.326;2023-06-01T11:45:38;22;22;
46885;PMS5003;32622;48.202;11.326;2023-06-01T11:47:41;22;22;
46885;PMS5003;32622;48.202;11.326;2023-06-01T11:49:45;23;22;
46885;PMS5003;32622;48.202;11.326;2023-06-01T11:51:49;23;22;
46885;PMS5003;32622;48.202;11.326;2023-06-01T11:53:52;23;22;
46885;PMS5003;32622;48.202;11.326;2023-06-01T11:55:56;22;22;
46885;PMS5003;32622;48.202;11.326;2023-06-01T11:57:59;22;22;
46885;PMS5003;32622;48.202;11.326;2023-06-01T12:00:03;22;22;
46885;PMS5003;32622;48.202;11.326;2023-06-01T12:02:17;22;22;
46885;PMS5003;32622;48.202;11.326;2023-06-01T12:04:22;23;23;
46885;PMS5003;32622;48.202;11.326;2023-06-01T12:06:26;23;23;
46885;PMS5003;32622;48.202;11.326;2023-06-01T12:08:28;24;23;
46885;PMS5003;32622;48.202;11.326;2023-06-01T12:10:33;24;23;
46885;PMS5003;32622;48.202;11.326;2023-06-01T12:12:37;24;23;
46885;PMS5003;32622;48.202;11.326;2023-06-01T12:14:41;25;23;
46885;PMS5003;32622;48.202;11.326;2023-06-01T12:16:54;25;23;
46885;PMS5003;32622;48.202;11.326;2023-06-01T12:19:09;24;22;
46885;PMS5003;32622;48.202;11.326;2023-06-01T12:21:12;24;22;
46885;PMS5003;32622;48.202;11.326;2023-06-01T12:23:17;24;22;
46885;PMS5003;32622;48.202;11.326;2023-06-01T12:25:20;24;22;
46885;PMS5003;32622;48.202;11.326;2023-06-01T12:27:23;23;22;
46885;PMS5003;32622;48.202;11.326;2023-06-01T12:29:34;23;22;
46885;PMS5003;32622;48.202;11.326;2023-06-01T12:31:39;23;22;
46885;PMS5003;32622;48.202;11.326;2023-06-01T12:33:54;22;20;
46885;PMS5003;32622;48.202;11.326;2023-06-01T12:35:57;22;20;
46885;PMS5003;32622;48.202;11.326;2023-06-01T12:38:02;22;20;
46885;PMS5003;32622;48.202;11.326;2023-06-01T12:40:07;23;21;
46885;PMS5003;32622;48.202;11.326;2023-06-01T12:42:11;23;21;
46885;PMS5003;32622;48.202;11.326;2023-06-01T12:44:18;23;21;
46885;PMS5003;32622;48.202;11.326;2023-06-01T12:46:21;23;22;
46885;PMS5003;32622;48.202;11.326;2023-06-01T12:48:33;23;22;
46885;PMS5003;32622;48.202;11.326;2023-06-01T12:50:42;23;22;
46885;PMS5003;32622;48.202;11.326;2023-06-01T12:52:45;25;23;
46885;PMS5003;32622;48.202;11.326;2023-06-01T12:54:50;24;22;
46885;PMS5003;32622;48.202;11.326;2023-06-01T12:56:53;24;22;
46885;PMS5003;32622;48.202;11.326;2023-06-01T12:58:57;26;24;
46885;PMS5003;32622;48.202;11.326;2023-06-01T13:01:00;27;25;
46885;PMS5003;32622;48.202;11.326;2023-06-01T13:03:03;27;25;
46885;PMS5003;32622;48.202;11.326;2023-06-01T13:05:07;27;24;
46885;PMS5003;32622;48.202;11.326;2023-06-01T13:07:10;30;26;
46885;PMS5003;32622;48.202;11.326;2023-06-01T13:09:14;29;26;
46885;PMS5003;32622;48.202;11.326;2023-06-01T13:11:17;29;25;
46885;PMS5003;32622;48.202;11.326;2023-06-01T13:13:21;29;24;
46885;PMS5003;32622;48.202;11.326;2023-06-01T13:15:24;30;25;
46885;PMS5003;32622;48.202;11.326;2023-06-01T13:17:27;31;25;
46885;PMS5003;32622;48.202;11.326;2023-06-01T13:19:30;31;25;
46885;PMS5003;32622;48.202;11.326;2023-06-01T13:21:34;30;24;
46885;PMS5003;32622;48.202;11.326;2023-06-01T13:23:37;26;21;
46885;PMS5003;32622;48.202;11.326;2023-06-01T13:25:40;27;22;
46885;PMS5003;32622;48.202;11.326;2023-06-01T13:27:43;24;21;
46885;PMS5003;32622;48.202;11.326;2023-06-01T13:29:46;24;21;
46885;PMS5003;32622;48.202;11.326;2023-06-01T13:31:49;24;21;
46885;PMS5003;32622;48.202;11.326;2023-06-01T13:33:52;24;21;
46885;PMS5003;32622;48.202;11.326;2023-06-01T13:35:55;24;22;